createdAt,value
2022-07-31T00:00:13.598Z,1.97
2022-07-31T00:02:40.687Z,1.90
2022-07-31T00:05:07.840Z,1.40
2022-07-31T00:07:34.703Z,1.70
2022-07-31T00:10:01.655Z,1.53
2022-07-31T00:12:28.568Z,1.83
2022-07-31T00:14:55.462Z,2.00
2022-07-31T00:17:22.346Z,1.90
2022-07-31T00:19:49.439Z,1.70
2022-07-31T00:22:16.529Z,1.67
2022-07-31T00:24:43.428Z,1.77
2022-07-31T00:27:10.942Z,2.23
2022-07-31T00:29:38.765Z,2.10
2022-07-31T00:32:06.302Z,2.27
2022-07-31T00:34:33.218Z,1.63
2022-07-31T00:37:00.245Z,1.93
2022-07-31T00:39:27.326Z,1.70
2022-07-31T00:41:55.151Z,2.07
2022-07-31T00:44:22.268Z,1.83
2022-07-31T00:46:50.011Z,1.70
2022-07-31T00:49:17.176Z,2.03
2022-07-31T00:51:44.174Z,2.10
2022-07-31T00:54:18.615Z,2.33
2022-07-31T00:56:50.703Z,2.20
2022-07-31T00:59:17.835Z,2.00
2022-07-31T01:01:51.692Z,2.10
2022-07-31T01:04:19.848Z,1.40
2022-07-31T01:06:47.589Z,1.70
2022-07-31T01:09:15.162Z,1.70
2022-07-31T01:11:50.873Z,1.77
2022-07-31T01:14:24.367Z,1.70
2022-07-31T01:16:54.449Z,1.70
2022-07-31T01:19:39.625Z,2.30
2022-07-31T01:22:37.195Z,1.70
2022-07-31T01:25:32.014Z,1.93
2022-07-31T01:27:58.846Z,1.80
2022-07-31T01:30:33.298Z,1.90
2022-07-31T01:33:06.215Z,2.13
2022-07-31T01:35:39.834Z,2.30
2022-07-31T01:38:17.351Z,2.67
2022-07-31T01:40:47.275Z,2.23
2022-07-31T01:43:29.584Z,1.80
2022-07-31T01:45:58.878Z,2.23
2022-07-31T01:48:26.943Z,2.10
2022-07-31T01:50:56.059Z,2.37
2022-07-31T01:53:25.184Z,2.70
2022-07-31T01:56:02.050Z,1.87
2022-07-31T01:58:34.991Z,2.03
2022-07-31T02:01:03.918Z,1.77
2022-07-31T02:03:43.598Z,1.83
2022-07-31T02:06:18.213Z,2.13
2022-07-31T02:08:51.718Z,1.93
2022-07-31T02:11:20.177Z,2.20
2022-07-31T02:13:48.548Z,2.60
2022-07-31T02:16:18.591Z,1.80
2022-07-31T02:18:48.479Z,1.87
2022-07-31T02:21:16.167Z,1.97
2022-07-31T02:23:43.074Z,2.10
2022-07-31T02:26:10.269Z,2.10
2022-07-31T02:28:40.817Z,2.70
2022-07-31T02:31:11.011Z,1.80
2022-07-31T02:33:40.158Z,2.40
2022-07-31T02:36:08.630Z,2.23
2022-07-31T02:38:37.453Z,1.80
2022-07-31T02:41:05.760Z,1.70
2022-07-31T02:43:34.978Z,1.67
2022-07-31T02:46:03.360Z,1.80
2022-07-31T02:48:31.161Z,2.30
2022-07-31T02:50:59.335Z,1.90
2022-07-31T02:53:27.264Z,1.80
2022-07-31T02:55:54.977Z,1.73
2022-07-31T02:58:21.918Z,1.90
2022-07-31T03:00:57.864Z,1.90
2022-07-31T03:03:24.820Z,1.50
2022-07-31T03:05:52.804Z,1.90
2022-07-31T03:08:19.661Z,1.87
2022-07-31T03:10:47.274Z,2.37
2022-07-31T03:13:15.752Z,1.60
2022-07-31T03:15:50.105Z,1.60
2022-07-31T03:18:21.843Z,1.63
2022-07-31T03:20:53.058Z,1.60
2022-07-31T03:23:25.403Z,1.70
2022-07-31T03:25:53.809Z,1.80
2022-07-31T03:28:21.699Z,1.70
2022-07-31T03:30:51.962Z,1.90
2022-07-31T03:33:23.661Z,1.60
2022-07-31T03:35:51.224Z,1.90
2022-07-31T03:38:40.902Z,2.30
2022-07-31T03:41:05.321Z,2.30
2022-07-31T03:43:47.020Z,1.70
2022-07-31T03:46:17.296Z,1.40
2022-07-31T03:48:44.950Z,1.80
2022-07-31T03:51:13.321Z,1.77
2022-07-31T03:53:41.443Z,1.90
2022-07-31T03:56:09.715Z,1.50
2022-07-31T03:58:38.661Z,2.03
2022-07-31T04:01:10.636Z,1.57
2022-07-31T04:03:39.268Z,1.87
2022-07-31T04:06:06.320Z,1.37
2022-07-31T04:08:33.927Z,1.60
2022-07-31T04:11:00.805Z,1.57
2022-07-31T04:13:28.492Z,1.57
2022-07-31T04:15:55.430Z,1.70
2022-07-31T04:18:22.471Z,1.83
2022-07-31T04:20:49.646Z,1.70
2022-07-31T04:23:16.933Z,1.60
2022-07-31T04:25:43.791Z,1.60
2022-07-31T04:28:10.753Z,1.70
2022-07-31T04:30:38.262Z,1.70
2022-07-31T04:33:05.195Z,1.80
2022-07-31T04:35:32.102Z,1.60
2022-07-31T04:37:58.962Z,1.50
2022-07-31T04:40:27.570Z,1.80
2022-07-31T04:42:55.244Z,1.40
2022-07-31T04:45:22.293Z,1.60
2022-07-31T04:47:49.227Z,1.90
2022-07-31T04:50:16.107Z,1.87
2022-07-31T04:52:43.036Z,1.90
2022-07-31T04:55:10.202Z,2.13
2022-07-31T04:57:37.126Z,1.80
2022-07-31T05:00:05.770Z,2.03
2022-07-31T05:02:33.038Z,2.17
2022-07-31T05:04:59.913Z,2.07
2022-07-31T05:07:28.874Z,2.10
2022-07-31T05:09:56.873Z,1.80
2022-07-31T05:12:23.766Z,2.00
2022-07-31T05:14:51.402Z,2.13
2022-07-31T05:17:18.238Z,2.40
2022-07-31T05:19:45.161Z,2.07
2022-07-31T05:22:12.463Z,1.80
2022-07-31T05:24:39.715Z,2.07
2022-07-31T05:27:06.879Z,2.30
2022-07-31T05:29:34.055Z,2.07
2022-07-31T05:32:01.770Z,2.00
2022-07-31T05:34:30.076Z,1.80
2022-07-31T05:37:01.773Z,1.67
2022-07-31T05:39:29.189Z,2.20
2022-07-31T05:41:56.078Z,1.90
2022-07-31T05:44:23.145Z,1.63
2022-07-31T05:49:16.040Z,1.50
2022-07-31T05:51:44.000Z,1.70
2022-07-31T05:54:10.895Z,1.70
2022-07-31T05:56:37.866Z,1.77
2022-07-31T05:59:04.779Z,1.97
2022-07-31T06:01:31.818Z,1.53
2022-07-31T06:03:58.718Z,1.60
2022-07-31T06:06:26.033Z,1.47
2022-07-31T06:08:53.031Z,1.80
2022-07-31T06:11:20.182Z,1.60
2022-07-31T06:13:47.074Z,1.50
2022-07-31T06:16:14.990Z,1.30
2022-07-31T06:18:42.988Z,1.70
2022-07-31T06:23:37.398Z,1.60
2022-07-31T06:26:04.935Z,1.90
2022-07-31T06:28:48.149Z,1.67
2022-07-31T06:31:25.244Z,1.50
2022-07-31T06:33:52.674Z,1.40
2022-07-31T06:36:19.874Z,1.50
2022-07-31T06:38:46.881Z,1.40
2022-07-31T06:41:32.704Z,1.60
2022-07-31T06:43:59.553Z,1.70
2022-07-31T06:46:26.437Z,1.53
2022-07-31T06:48:53.378Z,1.57
2022-07-31T06:51:30.718Z,1.50
2022-07-31T06:54:00.294Z,1.40
2022-07-31T06:56:27.571Z,1.53
2022-07-31T06:58:55.282Z,1.50
2022-07-31T07:01:22.569Z,1.90
2022-07-31T07:03:49.567Z,2.07
2022-07-31T07:06:16.599Z,1.80
2022-07-31T07:08:43.920Z,1.37
2022-07-31T07:11:12.415Z,2.00
2022-07-31T07:13:45.948Z,1.77
2022-07-31T07:16:16.121Z,1.50
2022-07-31T07:18:43.660Z,1.70
2022-07-31T07:21:11.153Z,1.23
2022-07-31T07:23:38.039Z,1.70
2022-07-31T07:26:05.611Z,1.67
2022-07-31T07:28:32.782Z,1.60
2022-07-31T07:30:59.823Z,1.50
2022-07-31T07:33:40.239Z,1.67
2022-07-31T07:36:22.834Z,1.90
2022-07-31T07:38:55.218Z,1.47
2022-07-31T07:41:23.523Z,2.07
2022-07-31T07:43:52.308Z,1.63
2022-07-31T07:46:20.807Z,1.73
2022-07-31T07:48:47.784Z,1.50
2022-07-31T07:51:14.787Z,1.63
2022-07-31T07:53:41.658Z,2.10
2022-07-31T07:56:08.614Z,1.73
2022-07-31T07:58:35.462Z,1.50
2022-07-31T08:01:02.379Z,1.67
2022-07-31T08:03:51.249Z,2.17
2022-07-31T08:06:16.200Z,1.63
2022-07-31T08:08:43.157Z,1.60
2022-07-31T08:11:10.075Z,1.47
2022-07-31T08:13:39.847Z,1.80
2022-07-31T08:16:07.994Z,1.87
2022-07-31T08:18:34.855Z,1.83
2022-07-31T08:21:01.783Z,1.40
2022-07-31T08:23:28.703Z,1.60
2022-07-31T08:25:55.606Z,1.40
2022-07-31T08:28:26.053Z,1.60
2022-07-31T08:30:54.004Z,1.70
2022-07-31T08:33:21.175Z,1.40
2022-07-31T08:35:50.583Z,1.77
2022-07-31T08:38:20.861Z,1.27
2022-07-31T08:40:47.867Z,1.60
2022-07-31T08:43:59.933Z,2.00
2022-07-31T08:46:03.005Z,1.40
2022-07-31T08:48:32.794Z,1.20
2022-07-31T08:51:03.169Z,1.20
2022-07-31T08:53:33.097Z,1.57
2022-07-31T08:56:00.540Z,1.40
2022-07-31T08:58:27.454Z,1.20
2022-07-31T09:00:55.155Z,1.67
2022-07-31T09:03:22.591Z,1.73
2022-07-31T09:05:49.747Z,1.40
2022-07-31T09:08:16.706Z,1.50
2022-07-31T09:10:49.290Z,1.10
2022-07-31T09:13:18.508Z,1.07
2022-07-31T09:15:45.797Z,1.30
2022-07-31T09:18:24.720Z,1.10
2022-07-31T09:21:02.417Z,1.10
2022-07-31T09:23:30.207Z,1.10
2022-07-31T09:26:05.893Z,1.40
2022-07-31T09:28:38.179Z,1.27
2022-07-31T09:31:06.451Z,1.20
2022-07-31T09:33:33.989Z,1.30
2022-07-31T09:36:01.113Z,1.20
2022-07-31T09:38:33.818Z,1.23
2022-07-31T09:41:56.181Z,1.10
2022-07-31T09:44:09.539Z,1.03
2022-07-31T09:46:45.721Z,1.10
2022-07-31T09:49:13.048Z,1.23
2022-07-31T09:51:41.945Z,1.20
2022-07-31T09:54:19.382Z,1.20
2022-07-31T09:56:46.904Z,1.40
2022-07-31T09:59:13.786Z,1.00
2022-07-31T10:01:41.455Z,1.10
2022-07-31T10:04:10.275Z,1.20
2022-07-31T10:06:39.315Z,0.97
2022-07-31T10:09:07.511Z,1.30
2022-07-31T10:11:34.400Z,1.00
2022-07-31T10:14:03.759Z,1.20
2022-07-31T10:16:36.279Z,1.37
2022-07-31T10:19:11.293Z,1.33
2022-07-31T10:21:41.827Z,0.90
2022-07-31T10:24:10.614Z,1.03
2022-07-31T10:26:59.861Z,1.00
2022-07-31T10:29:26.491Z,1.10
2022-07-31T10:31:53.948Z,1.13
2022-07-31T10:34:22.119Z,1.00
2022-07-31T10:36:51.911Z,1.30
2022-07-31T10:39:31.567Z,1.03
2022-07-31T10:42:23.414Z,1.03
2022-07-31T10:45:09.829Z,1.07
2022-07-31T10:47:37.023Z,0.90
2022-07-31T10:50:04.693Z,1.30
2022-07-31T10:52:35.250Z,0.80
2022-07-31T10:55:02.627Z,1.17
2022-07-31T10:57:32.045Z,1.10
2022-07-31T11:00:20.740Z,1.10
2022-07-31T11:02:48.476Z,0.83
2022-07-31T11:05:28.038Z,0.80
2022-07-31T11:08:04.514Z,0.90
2022-07-31T11:10:34.129Z,0.93
2022-07-31T11:13:05.322Z,1.00
2022-07-31T11:15:32.569Z,0.90
2022-07-31T11:18:16.654Z,1.03
2022-07-31T11:20:47.840Z,1.00
2022-07-31T11:23:16.750Z,1.10
2022-07-31T11:25:46.944Z,0.90
2022-07-31T11:28:21.421Z,1.07
2022-07-31T11:30:50.026Z,1.00
2022-07-31T11:33:28.126Z,1.00
2022-07-31T11:36:06.783Z,1.00
2022-07-31T11:38:34.102Z,0.97
2022-07-31T11:41:01.059Z,0.90
2022-07-31T11:43:28.955Z,0.90
2022-07-31T11:45:57.106Z,0.90
2022-07-31T11:48:27.910Z,1.00
2022-07-31T11:50:55.391Z,1.07
2022-07-31T11:53:22.436Z,1.27
2022-07-31T11:55:54.709Z,0.80
2022-07-31T11:58:23.464Z,0.90
2022-07-31T12:01:01.702Z,0.97
2022-07-31T12:03:33.231Z,1.07
2022-07-31T12:06:00.412Z,1.07
2022-07-31T12:08:27.868Z,1.10
2022-07-31T12:10:56.609Z,0.87
2022-07-31T12:13:25.033Z,1.03
2022-07-31T12:16:10.036Z,0.90
2022-07-31T12:18:50.750Z,0.90
2022-07-31T12:21:19.279Z,1.03
2022-07-31T12:23:51.454Z,1.23
2022-07-31T12:26:29.923Z,0.90
2022-07-31T12:29:00.717Z,1.10
2022-07-31T12:31:29.593Z,1.07
2022-07-31T12:33:56.692Z,1.10
2022-07-31T12:36:23.731Z,1.10
2022-07-31T12:39:01.419Z,0.70
2022-07-31T12:41:29.691Z,0.93
2022-07-31T12:44:13.440Z,0.97
2022-07-31T12:46:41.775Z,1.10
2022-07-31T12:49:08.956Z,0.97
2022-07-31T12:51:45.637Z,0.97
2022-07-31T12:54:17.534Z,1.10
2022-07-31T12:56:45.435Z,1.00
2022-07-31T12:59:12.716Z,1.10
2022-07-31T13:01:39.876Z,1.20
2022-07-31T13:04:07.734Z,1.10
2022-07-31T13:06:36.228Z,1.00
2022-07-31T13:09:03.383Z,1.07
2022-07-31T13:11:46.665Z,1.00
2022-07-31T13:14:19.656Z,0.90
2022-07-31T13:16:47.567Z,1.10
2022-07-31T13:19:15.487Z,1.13
2022-07-31T13:21:48.898Z,1.00
2022-07-31T13:24:18.169Z,1.10
2022-07-31T13:26:45.567Z,1.20
2022-07-31T13:29:13.092Z,1.10
2022-07-31T13:31:40.176Z,1.10
2022-07-31T13:34:07.528Z,1.20
2022-07-31T13:36:39.343Z,1.40
2022-07-31T13:39:07.849Z,1.00
2022-07-31T13:41:35.598Z,1.13
2022-07-31T13:44:03.528Z,0.80
2022-07-31T13:46:31.665Z,1.13
2022-07-31T13:49:00.269Z,0.80
2022-07-31T13:51:30.029Z,0.90
2022-07-31T13:53:57.274Z,1.10
2022-07-31T13:56:41.116Z,1.10
2022-07-31T13:59:14.118Z,1.17
2022-07-31T14:02:03.062Z,1.20
2022-07-31T14:04:32.245Z,1.20
2022-07-31T14:07:01.277Z,1.03
2022-07-31T14:09:30.481Z,1.10
2022-07-31T14:11:57.434Z,1.37
2022-07-31T14:14:24.421Z,1.30
2022-07-31T14:16:51.382Z,1.37
2022-07-31T14:19:18.311Z,1.40
2022-07-31T14:21:56.235Z,1.30
2022-07-31T14:24:24.536Z,1.30
2022-07-31T14:26:51.587Z,1.17
2022-07-31T14:29:18.530Z,1.37
2022-07-31T14:31:45.416Z,1.33
2022-07-31T14:34:12.298Z,1.10
2022-07-31T14:36:39.179Z,1.50
2022-07-31T14:39:06.154Z,1.10
2022-07-31T14:41:34.196Z,1.30
2022-07-31T14:44:01.088Z,1.30
2022-07-31T14:46:28.002Z,1.50
2022-07-31T14:48:55.014Z,1.10
2022-07-31T14:51:22.051Z,1.20
2022-07-31T14:53:49.080Z,1.03
2022-07-31T14:56:27.293Z,1.30
2022-07-31T14:59:03.477Z,1.30
2022-07-31T15:01:30.954Z,1.63
2022-07-31T15:03:58.456Z,1.20
2022-07-31T15:06:39.868Z,1.20
2022-07-31T15:09:15.019Z,1.20
2022-07-31T15:11:59.578Z,1.20
2022-07-31T15:14:29.500Z,1.20
2022-07-31T15:16:56.639Z,1.10
2022-07-31T15:19:23.524Z,1.13
2022-07-31T15:22:16.032Z,1.10
2022-07-31T15:24:39.277Z,0.90
2022-07-31T15:27:09.326Z,1.00
2022-07-31T15:30:06.175Z,1.20
2022-07-31T15:32:23.063Z,1.13
2022-07-31T15:34:49.966Z,1.07
2022-07-31T15:37:20.334Z,1.03
2022-07-31T15:40:02.810Z,1.10
2022-07-31T15:42:33.988Z,1.10
2022-07-31T15:45:01.086Z,1.23
2022-07-31T15:47:28.183Z,1.40
2022-07-31T15:49:55.233Z,1.23
2022-07-31T15:52:22.238Z,1.27
2022-07-31T15:54:52.235Z,1.43
2022-07-31T15:57:23.210Z,1.27
2022-07-31T15:59:54.222Z,1.17
2022-07-31T16:02:21.942Z,1.30
2022-07-31T16:04:52.958Z,1.37
2022-07-31T16:08:29.415Z,1.60
2022-07-31T16:10:15.379Z,1.13
2022-07-31T16:12:47.808Z,1.30
2022-07-31T16:15:16.517Z,1.23
2022-07-31T16:17:43.819Z,1.33
2022-07-31T16:20:25.436Z,1.20
2022-07-31T16:22:56.464Z,1.10
2022-07-31T16:25:24.736Z,1.10
2022-07-31T16:27:51.743Z,1.37
2022-07-31T16:30:18.705Z,1.50
2022-07-31T16:32:45.722Z,0.90
2022-07-31T16:35:12.912Z,1.17
2022-07-31T16:37:51.016Z,0.80
2022-07-31T16:40:30.599Z,1.00
2022-07-31T16:43:47.276Z,0.80
2022-07-31T16:45:51.070Z,1.13
2022-07-31T16:48:18.353Z,1.00
2022-07-31T16:50:48.251Z,1.00
2022-07-31T16:54:09.748Z,1.27
2022-07-31T16:56:09.539Z,1.17
2022-07-31T16:58:36.460Z,1.10
2022-07-31T17:01:04.338Z,1.37
2022-07-31T17:04:01.610Z,1.30
2022-07-31T17:06:18.403Z,1.40
2022-07-31T17:09:15.956Z,1.00
2022-07-31T17:11:49.542Z,1.20
2022-07-31T17:14:21.545Z,1.40
2022-07-31T17:16:50.188Z,1.23
2022-07-31T17:19:41.785Z,1.03
2022-07-31T17:22:08.375Z,1.20
2022-07-31T17:24:38.962Z,1.10
2022-07-31T17:27:09.993Z,1.10
2022-07-31T17:29:38.221Z,1.30
2022-07-31T17:32:06.359Z,1.10
2022-07-31T17:34:35.351Z,1.00
2022-07-31T17:37:02.651Z,1.43
2022-07-31T17:39:31.186Z,1.20
2022-07-31T17:41:59.110Z,1.10
2022-07-31T17:44:26.369Z,1.20
2022-07-31T17:46:54.612Z,1.20
2022-07-31T17:49:21.676Z,1.40
2022-07-31T17:51:57.612Z,1.17
2022-07-31T17:54:28.539Z,1.40
2022-07-31T17:56:55.616Z,1.60
2022-07-31T17:59:23.263Z,1.57
2022-07-31T18:01:52.256Z,2.97
2022-07-31T18:04:21.157Z,1.97
2022-07-31T18:06:54.478Z,1.97
2022-07-31T18:09:23.426Z,1.70
2022-07-31T18:11:51.890Z,1.47
2022-07-31T18:14:19.690Z,2.07
2022-07-31T18:16:47.752Z,1.70
2022-07-31T18:19:15.338Z,1.70
2022-07-31T18:21:42.334Z,1.20
2022-07-31T18:24:09.357Z,1.57
2022-07-31T18:26:37.386Z,1.30
2022-07-31T18:29:04.496Z,1.47
2022-07-31T18:31:35.453Z,1.43
2022-07-31T18:34:07.114Z,1.60
2022-07-31T18:36:35.456Z,1.60
2022-07-31T18:39:04.176Z,1.50
2022-07-31T18:41:31.591Z,1.50
2022-07-31T18:43:58.624Z,1.50
2022-07-31T18:46:25.845Z,1.73
2022-07-31T18:48:55.886Z,1.50
2022-07-31T18:51:24.336Z,1.23
2022-07-31T18:53:51.834Z,1.97
2022-07-31T18:56:22.502Z,1.40
2022-07-31T18:58:49.524Z,1.87
2022-07-31T19:01:16.497Z,1.63
2022-07-31T19:03:43.395Z,1.50
2022-07-31T19:06:11.593Z,1.53
2022-07-31T19:08:38.656Z,1.63
2022-07-31T19:11:06.661Z,1.47
2022-07-31T19:13:33.688Z,1.37
2022-07-31T19:16:04.184Z,1.50
2022-07-31T19:18:31.055Z,1.43
2022-07-31T19:21:23.639Z,1.87
2022-07-31T19:23:45.861Z,1.60
2022-07-31T19:26:12.849Z,1.53
2022-07-31T19:28:40.220Z,1.30
2022-07-31T19:31:07.571Z,1.40
2022-07-31T19:33:34.588Z,1.30
2022-07-31T19:36:03.174Z,1.80
2022-07-31T19:38:31.801Z,1.73
2022-07-31T19:40:59.328Z,1.50
2022-07-31T19:43:26.656Z,1.53
2022-07-31T19:46:09.740Z,1.63
2022-07-31T19:48:43.978Z,1.33
2022-07-31T19:51:12.998Z,1.30
2022-07-31T19:53:41.618Z,1.50
2022-07-31T19:56:10.228Z,1.40
2022-07-31T19:58:38.132Z,2.40
2022-07-31T20:01:05.934Z,1.70
2022-07-31T20:03:33.532Z,1.87
2022-07-31T20:06:01.151Z,1.50
2022-07-31T20:08:30.947Z,1.53
2022-07-31T20:11:04.137Z,1.50
2022-07-31T20:13:36.084Z,1.60
2022-07-31T20:16:04.229Z,1.80
2022-07-31T20:18:31.207Z,1.60
2022-07-31T20:21:06.458Z,1.93
2022-07-31T20:23:34.684Z,1.80
2022-07-31T20:26:01.897Z,1.70
2022-07-31T20:28:28.872Z,1.60
2022-07-31T20:30:56.068Z,1.60
2022-07-31T20:33:23.455Z,1.53
2022-07-31T20:35:50.791Z,2.20
2022-07-31T20:38:22.457Z,1.90
2022-07-31T20:40:54.407Z,1.73
2022-07-31T20:43:27.422Z,1.40
2022-07-31T20:45:59.079Z,1.77
2022-07-31T20:48:32.318Z,1.60
2022-07-31T20:51:01.411Z,1.40
2022-07-31T20:53:29.332Z,1.47
2022-07-31T20:55:56.314Z,1.80
2022-07-31T20:58:24.312Z,2.13
2022-07-31T21:00:52.831Z,2.10
2022-07-31T21:03:20.232Z,1.70
2022-07-31T21:05:47.959Z,2.40
2022-07-31T21:08:15.494Z,2.10
2022-07-31T21:10:42.444Z,1.87
2022-07-31T21:13:09.942Z,1.70
2022-07-31T21:15:41.788Z,1.67
2022-07-31T21:18:16.045Z,1.50
2022-07-31T21:20:49.862Z,1.70
2022-07-31T21:23:17.799Z,1.47
2022-07-31T21:25:44.954Z,1.80
2022-07-31T21:28:12.183Z,1.93
2022-07-31T21:30:39.992Z,2.03
2022-07-31T21:33:10.136Z,1.83
2022-07-31T21:35:39.171Z,2.00
2022-07-31T21:38:10.396Z,2.00
2022-07-31T21:40:39.874Z,2.20
2022-07-31T21:43:07.300Z,1.43
2022-07-31T21:45:40.584Z,1.97
2022-07-31T21:48:19.357Z,1.80
2022-07-31T21:50:47.095Z,2.17
2022-07-31T21:53:14.322Z,1.83
2022-07-31T21:55:41.364Z,2.00
2022-07-31T21:58:09.098Z,1.70
2022-07-31T22:00:36.863Z,2.43
2022-07-31T22:03:04.519Z,1.80
2022-07-31T22:05:50.291Z,2.27
2022-07-31T22:08:17.861Z,1.80
2022-07-31T22:10:45.163Z,2.30
2022-07-31T22:13:12.066Z,2.20
2022-07-31T22:15:57.013Z,2.03
2022-07-31T22:18:31.048Z,2.30
2022-07-31T22:20:58.964Z,2.10
2022-07-31T22:23:27.671Z,1.60
2022-07-31T22:25:54.947Z,2.20
2022-07-31T22:28:23.778Z,1.70
2022-07-31T22:30:51.731Z,1.67
2022-07-31T22:33:19.344Z,1.53
2022-07-31T22:35:59.644Z,1.40
2022-07-31T22:38:29.831Z,1.57
2022-07-31T22:41:00.810Z,1.60
2022-07-31T22:44:10.954Z,1.60
2022-07-31T22:46:15.580Z,1.43
2022-07-31T22:48:44.331Z,1.57
2022-07-31T22:51:14.385Z,1.80
2022-07-31T22:53:43.396Z,1.93
2022-07-31T22:56:10.544Z,2.50
2022-07-31T22:58:37.454Z,1.77
2022-07-31T23:01:04.749Z,1.57
2022-07-31T23:03:31.657Z,1.77
2022-07-31T23:06:02.716Z,2.33
2022-07-31T23:08:45.415Z,1.97
2022-07-31T23:11:12.791Z,1.97
2022-07-31T23:13:39.801Z,1.97
2022-07-31T23:16:06.799Z,1.53
2022-07-31T23:18:33.661Z,3.17
2022-07-31T23:21:00.515Z,1.70
2022-07-31T23:23:27.410Z,2.30
2022-07-31T23:25:54.284Z,2.20
2022-07-31T23:28:21.201Z,1.80
2022-07-31T23:30:48.098Z,1.90
2022-07-31T23:33:16.964Z,2.20
2022-07-31T23:35:44.362Z,1.83
2022-07-31T23:38:11.237Z,1.73
2022-07-31T23:40:38.387Z,1.80
2022-07-31T23:43:05.287Z,2.60
2022-07-31T23:45:32.163Z,2.20
2022-07-31T23:47:59.156Z,1.40
2022-07-31T23:50:26.944Z,1.90
2022-07-31T23:52:53.853Z,2.10
2022-07-31T23:55:20.846Z,2.10
2022-07-31T23:57:47.905Z,1.50
